Monday, November 24, 2014
14:00 UTC
  |  Log In   |  Register Free
Airport Search:

Firelands Community Hospital Nr 2 Airport
(OI87)

Firelands Community Hospital Nr 2 Airport Diagram
No Airport Diagram Available

FAA data valid effective November 13, 2014 - January 08, 2015 (unless otherwise noted).

 
 
 
 
 
 
 
 
 
 
 
 
 
 

Current Aviation Weather for Firelands Community Hospital Nr 2 Airport (OI87)

METAR data is unavailable for OI87. The nearest METAR location is at KPCW (8.3 nm NW from OI87).

The most recent METAR observation for KPCW was updated at: 1312
METAR Summary (Translated METAR)
KPCW
241253Z AUTO 20014KT 10SM SCT030 BKN050 OVC065 15/12 A2920 RMK AO2
(8.3 nm NW from OI87)
KLPR
241253Z AUTO 21019G26KT 10SM SCT030 SCT039 OVC055 15/11 A2926 RMK AO2 PK WND 23030/1226 RAB26E36 SLP908 P0000 T01500111 TSNO $
(24.8 nm SE from OI87)
TAF
No TAF information found within 50 nm of KLPR
  Airport Weather Conditions for OI87

Current weather conditions are
not available for OI87


The nearest NOAA weather station
is at PCW, (8.3 nm NW from OI87)
  
 Current Weather at PCW
59° F
Overcast
South winds at 16.1 mph
PCW NOAA Radar

Pressure: 29.20 in
Humidity: 82%
Wind: South at 16.1 MPH (14 KT)
Dew Point: 53.6°F
Visibility: 10.00 mi


Airport Weather Forecast for OI87

Translated METAR and TAF for KLPR
Translated METAR for KLPR (1355 UTC 24 November 2014)
found at http://aviationweather.gov/adds/metars/
 
METAR text: KLPR 241253Z AUTO 21019G26KT 10SM SCT030 SCT039 OVC055 15/11 A2926 RMK AO2 PK WND 23030/1226 RAB26E36 SLP908 P0000 T01500111 TSNO $
Conditions at: KLPR (LORAIN/ELYRIA , OH, US) observed 1253 UTC 24 November 2014
Temperature: 15.0°C (59°F)
Dewpoint: 11.1°C (52°F) [RH = 77%]
Pressure (altimeter): 29.26 inches Hg (990.9 mb)
[Sea-level pressure: 990.8 mb]
Winds: from the SSW (210 degrees) at 22 MPH (19 knots; 9.9 m/s)
gusting to 30 MPH (26 knots; 13.5 m/s)
Visibility: 10 or more miles (16+ km)
Ceiling: 5500 feet AGL
Clouds: scattered clouds at 3000 feet AGL
scattered clouds at 3900 feet AGL
overcast cloud deck at 5500 feet AGL
Weather:
SOME DATA ABOVE MAY BE INACCURATE!!!
"$" is an indication the sensor requires maintenance
Translated TAF for KLPR

There is no translated TAF available for this airport

Find All Airport Services Find A Hotel Find A Rental Car Find A Golf Course Find A Restaurant $100 Hamburger



FBO's on the Field
FBO Company Facility Photos Services Transportation Aviation Fuel Prices: Prices include tax
Catering Weather Repair Courtesy Rental Type 100LL JetA JetA+ MOGAS 8087
 
Add another FBO Facility Photos Catering Weather Repair Courtesy Rental Type 100LL JetA JetA+ MOGAS 8087
Services Transportation Aviation Fuel Prices: Prices include tax
There are no FBO's currently reporting fuel at OI87. List your FBO now


model-print
model-print
model-print
model-print